createdAt,value
2019-03-16T00:00:32.516Z,101089.91
2019-03-16T00:05:34.035Z,101089.01
2019-03-16T00:10:35.552Z,101064.39
2019-03-16T00:15:37.067Z,101069.47
2019-03-16T00:20:38.596Z,101071.53
2019-03-16T00:25:40.128Z,101093.28
2019-03-16T00:30:41.618Z,101085.02
2019-03-16T00:35:43.189Z,101085.37
2019-03-16T00:40:44.699Z,101084.46
2019-03-16T00:45:46.248Z,101091.91
2019-03-16T00:50:47.726Z,101085.92
2019-03-16T00:55:49.290Z,101095.55
2019-03-16T01:00:50.792Z,101093.84
2019-03-16T01:05:52.369Z,101095.15
2019-03-16T01:10:53.849Z,101093.03
2019-03-16T01:15:55.370Z,101089.57
2019-03-16T01:20:56.867Z,101097.17
2019-03-16T01:25:58.386Z,101092.90
2019-03-16T01:30:59.970Z,101087.75
2019-03-16T01:36:01.480Z,101092.99
2019-03-16T01:41:03.175Z,101064.73
2019-03-16T01:46:04.689Z,101090.03
2019-03-16T01:51:06.196Z,101080.52
2019-03-16T01:56:07.768Z,101073.98
2019-03-16T02:01:09.309Z,101076.69
2019-03-16T02:06:11.735Z,101050.50
2019-03-16T02:11:13.233Z,101053.18
2019-03-16T02:16:15.296Z,101044.57
2019-03-16T02:21:16.792Z,101045.07
2019-03-16T02:26:18.317Z,101034.19
2019-03-16T02:31:19.842Z,101018.89
2019-03-16T02:36:21.368Z,101039.98
2019-03-16T02:41:22.905Z,101028.61
2019-03-16T02:46:24.442Z,101041.55
2019-03-16T02:51:26.193Z,101027.49
2019-03-16T02:56:27.721Z,101028.66
2019-03-16T03:01:29.255Z,101032.78
2019-03-16T03:06:30.792Z,101012.03
2019-03-16T03:11:32.318Z,101018.33
2019-03-16T03:16:33.815Z,101005.84
2019-03-16T03:21:35.372Z,101014.24
2019-03-16T03:26:37.212Z,101017.86
2019-03-16T03:31:38.788Z,101017.80
2019-03-16T03:36:40.289Z,101011.02
2019-03-16T03:41:41.834Z,100998.68
2019-03-16T03:46:43.333Z,100999.58
2019-03-16T03:51:44.972Z,100992.08
2019-03-16T03:56:46.447Z,100985.45
2019-03-16T04:01:47.972Z,100975.08
2019-03-16T04:06:49.476Z,100973.48
2019-03-16T04:11:51.024Z,100964.77
2019-03-16T04:16:52.631Z,100966.47
2019-03-16T04:21:54.156Z,100962.61
2019-03-16T04:26:55.682Z,100966.47
2019-03-16T04:31:57.212Z,100960.19
2019-03-16T04:36:58.719Z,100959.23
2019-03-16T04:42:00.294Z,100955.61
2019-03-16T04:47:01.768Z,100938.89
2019-03-16T04:52:03.292Z,100936.59
2019-03-16T04:57:04.832Z,100946.59
2019-03-16T05:02:06.357Z,100929.19
2019-03-16T05:07:07.960Z,100921.25
2019-03-16T05:12:09.472Z,100920.28
2019-03-16T05:17:10.999Z,100912.34
2019-03-16T05:22:12.510Z,100903.07
2019-03-16T05:27:14.040Z,100895.95
2019-03-16T05:32:15.573Z,100888.79
2019-03-16T05:37:17.103Z,100891.81
2019-03-16T05:42:18.603Z,100890.16
2019-03-16T05:47:20.186Z,100881.44
2019-03-16T05:52:21.662Z,100880.13
2019-03-16T05:57:23.375Z,100894.52
2019-03-16T06:02:24.888Z,100890.09
2019-03-16T06:07:26.529Z,100885.02
2019-03-16T06:12:28.011Z,100877.94
2019-03-16T06:17:29.535Z,100880.34
2019-03-16T06:22:31.102Z,100868.22
2019-03-16T06:27:32.607Z,100864.14
2019-03-16T06:32:35.148Z,100849.10
2019-03-16T06:37:36.701Z,100840.90
2019-03-16T06:42:38.546Z,100833.41
2019-03-16T06:47:40.059Z,100835.48
2019-03-16T06:52:41.679Z,100810.50
2019-03-16T06:57:43.198Z,100816.42
2019-03-16T07:02:45.736Z,100818.05
2019-03-16T07:07:47.239Z,100815.02
2019-03-16T07:12:48.776Z,100814.25
2019-03-16T07:17:50.392Z,100819.67
2019-03-16T07:22:51.938Z,100827.61
2019-03-16T07:27:53.423Z,100839.17
2019-03-16T07:32:54.952Z,100831.31
2019-03-16T07:37:56.587Z,100820.02
2019-03-16T07:42:58.115Z,100830.55
2019-03-16T07:47:59.702Z,100836.28
2019-03-16T07:53:01.285Z,100854.34
2019-03-16T07:58:02.795Z,100856.66
2019-03-16T08:03:04.293Z,100833.14
2019-03-16T08:08:05.866Z,100838.84
2019-03-16T08:13:07.352Z,100832.78
2019-03-16T08:18:08.838Z,100818.49
2019-03-16T08:23:10.348Z,100815.05
2019-03-16T08:28:11.931Z,100809.03
2019-03-16T08:33:13.410Z,100796.34
2019-03-16T08:38:14.959Z,100840.55
2019-03-16T08:43:16.565Z,100830.42
2019-03-16T08:48:23.222Z,100802.16
2019-03-16T08:53:22.959Z,100795.56
2019-03-16T08:58:24.775Z,100780.36
2019-03-16T09:03:26.269Z,100817.45
2019-03-16T09:08:27.799Z,100811.45
2019-03-16T09:13:29.322Z,100797.47
2019-03-16T09:18:30.826Z,100790.25
2019-03-16T09:23:32.413Z,100774.28
2019-03-16T09:28:33.985Z,100762.61
2019-03-16T09:33:35.541Z,100765.72
2019-03-16T09:38:36.981Z,100762.42
2019-03-16T09:43:38.635Z,100774.20
2019-03-16T09:48:40.169Z,100766.37
2019-03-16T09:53:41.692Z,100747.11
2019-03-16T09:58:43.160Z,100741.84
2019-03-16T10:03:44.811Z,100755.61
2019-03-16T10:08:46.398Z,100751.81
2019-03-16T10:13:47.946Z,100767.38
2019-03-16T10:18:49.491Z,100744.56
2019-03-16T10:23:51.016Z,100746.50
2019-03-16T10:28:52.485Z,100736.47
2019-03-16T10:33:54.016Z,100730.95
2019-03-16T10:38:55.516Z,100727.61
2019-03-16T10:43:57.112Z,100722.01
2019-03-16T10:48:58.592Z,100707.89
2019-03-16T10:54:00.169Z,100724.38
2019-03-16T10:59:01.746Z,100724.48
2019-03-16T11:04:03.255Z,100729.80
2019-03-16T11:09:05.372Z,100710.46
2019-03-16T11:14:06.864Z,100715.72
2019-03-16T11:19:08.415Z,100704.33
2019-03-16T11:24:09.940Z,100727.52
2019-03-16T11:29:11.445Z,100694.95
2019-03-16T11:34:15.050Z,100688.56
2019-03-16T11:39:16.557Z,100685.09
2019-03-16T11:44:18.071Z,100684.92
2019-03-16T11:49:19.712Z,100700.70
2019-03-16T11:54:21.209Z,100718.50
2019-03-16T11:59:22.742Z,100675.91
2019-03-16T12:04:24.332Z,100670.64
2019-03-16T12:09:25.987Z,100687.81
2019-03-16T12:14:27.506Z,100681.52
2019-03-16T12:19:29.070Z,100674.53
2019-03-16T12:24:32.690Z,100666.14
2019-03-16T12:29:34.559Z,100681.89
2019-03-16T12:34:36.329Z,100668.25
2019-03-16T12:39:38.075Z,100665.56
2019-03-16T12:44:39.625Z,100649.98
2019-03-16T12:49:45.602Z,100659.50
2019-03-16T12:54:47.205Z,100632.89
2019-03-16T12:59:48.798Z,100626.48
2019-03-16T13:04:50.308Z,100633.01
2019-03-16T13:09:51.817Z,100647.42
2019-03-16T13:14:53.346Z,100644.79
2019-03-16T13:19:54.859Z,100622.91
2019-03-16T13:24:56.400Z,100623.50
2019-03-16T13:29:59.192Z,100607.80
2019-03-16T13:35:00.933Z,100610.44
2019-03-16T13:40:03.103Z,100613.13
2019-03-16T13:45:04.839Z,100620.75
2019-03-16T13:50:08.079Z,100597.38
2019-03-16T13:55:09.915Z,100596.39
2019-03-16T14:00:12.469Z,100592.61
2019-03-16T14:05:14.281Z,100571.70
2019-03-16T14:10:16.263Z,100569.06
2019-03-16T14:15:17.791Z,100564.45
2019-03-16T14:20:19.293Z,100540.91
2019-03-16T14:25:20.807Z,100558.37
2019-03-16T14:30:39.433Z,100542.98
2019-03-16T14:35:25.736Z,100538.86
2019-03-16T14:40:27.325Z,100538.50
2019-03-16T14:45:40.716Z,100514.73
2019-03-16T14:50:42.243Z,100507.13
2019-03-16T14:55:43.755Z,100506.98
2019-03-16T15:00:45.245Z,100505.94
2019-03-16T15:05:48.871Z,100501.86
2019-03-16T15:10:50.394Z,100507.52
2019-03-16T15:15:51.942Z,100491.63
2019-03-16T15:20:53.409Z,100487.28
2019-03-16T15:26:03.244Z,100482.00
2019-03-16T15:31:04.734Z,100492.34
2019-03-16T15:36:06.265Z,100488.81
2019-03-16T15:41:07.765Z,100488.14
2019-03-16T15:46:09.323Z,100486.41
2019-03-16T15:51:10.807Z,100457.28
2019-03-16T15:56:12.341Z,100446.71
2019-03-16T16:01:13.919Z,100452.30
2019-03-16T16:06:15.475Z,100459.52
2019-03-16T16:11:23.079Z,100447.13
2019-03-16T16:16:24.561Z,100434.28
2019-03-16T16:21:26.123Z,100429.72
2019-03-16T16:26:27.621Z,100415.57
2019-03-16T16:31:29.183Z,100437.43
2019-03-16T16:36:30.785Z,100409.18
2019-03-16T16:41:32.359Z,100385.92
2019-03-16T16:46:40.743Z,100394.28
2019-03-16T16:51:42.238Z,100395.09
2019-03-16T16:56:43.809Z,100391.48
2019-03-16T17:01:45.370Z,100388.77
2019-03-16T17:06:46.861Z,100383.98
2019-03-16T17:11:48.450Z,100376.85
2019-03-16T17:16:50.034Z,100378.95
2019-03-16T17:21:51.615Z,100380.55
2019-03-16T17:26:53.155Z,100382.76
2019-03-16T17:31:54.640Z,100379.15
2019-03-16T17:36:56.238Z,100375.12
2019-03-16T17:41:57.753Z,100363.72
2019-03-16T17:46:59.265Z,100359.33
2019-03-16T17:52:00.868Z,100337.75
2019-03-16T17:57:02.472Z,100345.66
2019-03-16T18:02:04.005Z,100333.42
2019-03-16T18:07:05.662Z,100325.13
2019-03-16T18:12:07.261Z,100322.98
2019-03-16T18:17:08.830Z,100302.88
2019-03-16T18:22:10.502Z,100307.67
2019-03-16T18:27:12.115Z,100303.31
2019-03-16T18:32:13.715Z,100301.02
2019-03-16T18:37:15.284Z,100300.99
2019-03-16T18:42:16.871Z,100302.39
2019-03-16T18:47:18.552Z,100294.04
2019-03-16T18:52:20.332Z,100294.42
2019-03-16T18:57:22.125Z,100299.20
2019-03-16T19:02:23.750Z,100278.97
2019-03-16T19:07:25.564Z,100284.67
2019-03-16T19:12:27.326Z,100270.31
2019-03-16T19:17:28.870Z,100258.56
2019-03-16T19:22:30.544Z,100249.79
2019-03-16T19:27:32.141Z,100246.33
2019-03-16T19:32:36.579Z,100239.70
2019-03-16T19:37:37.185Z,100237.97
2019-03-16T19:42:38.901Z,100233.95
2019-03-16T19:47:40.590Z,100241.02
2019-03-16T19:52:42.222Z,100239.40
2019-03-16T19:57:43.975Z,100230.66
2019-03-16T20:02:50.649Z,100223.20
2019-03-16T20:07:49.236Z,100218.45
2019-03-16T20:12:53.068Z,100205.81
2019-03-16T20:17:54.648Z,100203.59
2019-03-16T20:22:56.434Z,100187.52
2019-03-16T20:27:58.263Z,100190.59
2019-03-16T20:33:04.684Z,100179.16
2019-03-16T20:38:04.748Z,100157.66
2019-03-16T20:43:06.337Z,100155.45
2019-03-16T20:48:07.875Z,100147.55
2019-03-16T20:53:09.496Z,100146.67
2019-03-16T20:58:11.538Z,100144.52
2019-03-16T21:03:16.351Z,100123.04
2019-03-16T21:08:17.084Z,100128.77
2019-03-16T21:13:18.688Z,100128.37
2019-03-16T21:18:20.275Z,100118.68
2019-03-16T21:23:21.820Z,100121.70
2019-03-16T21:28:23.603Z,100097.17
2019-03-16T21:33:29.723Z,100095.84
2019-03-16T21:38:31.264Z,100087.47
2019-03-16T21:43:36.140Z,100084.84
2019-03-16T21:48:37.781Z,100078.62
2019-03-16T21:53:39.415Z,100076.73
2019-03-16T21:58:41.604Z,100057.61
2019-03-16T22:03:43.350Z,100023.64
2019-03-16T22:08:44.997Z,100039.51
2019-03-16T22:13:47.406Z,100038.75
2019-03-16T22:18:48.937Z,100037.73
2019-03-16T22:23:50.453Z,100025.76
2019-03-16T22:28:51.926Z,100027.30
2019-03-16T22:33:54.766Z,100015.78
2019-03-16T22:38:56.594Z,100013.11
2019-03-16T22:43:58.076Z,100018.27
2019-03-16T22:49:00.660Z,100020.89
2019-03-16T22:54:02.277Z,100023.28
2019-03-16T22:59:03.822Z,100030.01
2019-03-16T23:04:07.057Z,100014.06
2019-03-16T23:09:08.828Z,100003.33
2019-03-16T23:14:10.307Z,99971.44
2019-03-16T23:19:11.891Z,99974.22
2019-03-16T23:24:13.443Z,99941.48
2019-03-16T23:29:14.993Z,99928.91
2019-03-16T23:34:19.268Z,99914.08
2019-03-16T23:39:20.303Z,99894.47
2019-03-16T23:44:21.789Z,99897.42
2019-03-16T23:49:23.315Z,99898.00
2019-03-16T23:54:24.868Z,99892.05
2019-03-16T23:59:26.431Z,99885.98
